Jonesboro, Indiana
Current Conditions -  °F | °C
As of 8:53 AM on Thursday 27 Nov 2014 (Local Time) from KMIE Reporting Station
Overcast Overcast  
Wind Chill: 20°   Ceiling: 5000
Heat Index: 28°   Visibility: 7mi
Dew Point: 22°   Wind: 8mph
Humidity: 78%   Direction: 290°WNW
Pressure: 30.23"   Gusts: NA
Location:  40.48°N, 85.63°W
Report Text: KMIE 271353Z 29007KT 7SM OVC050 M02/M06 A3023 RMK AO2 SLP243 T10221056
Loading
Personal Weather Stations






























Interactive Weather Map New forecast layout! Learn more

10-Day Weather Forecast

Advertisements
Track Severe Weather on mobile